Time;durP1;ratioP1;P1;durP2;ratioP2;P2;SDS_P1;SDS_P2;PMS_P1;PMS_P2;Temp;Humidity;BMP_temperature;BMP_pressure;BME280_temperature;BME280_humidity;BME280_pressure;Samples;Min_cycle;Max_cycle;Signal;HPM_P1;HPM_P2
2022/05/10 00:00:26;;;;;;;15.57;6.53;;;;;;;11.98;53.44;100488.47;5114116;28;20038;-87
2022/05/10 00:02:54;;;;;;;15.98;7.97;;;;;;;11.96;53.45;100479.81;5114010;28;20031;-86
2022/05/10 00:05:32;;;;;;;33.78;15.60;;;;;;;12.01;53.28;100490.13;5115011;28;20055;-86
2022/05/10 00:07:59;;;;;;;24.90;17.02;;;;;;;11.99;53.02;100489.31;5113831;28;20549;-86
2022/05/10 00:10:25;;;;;;;8.52;5.53;;;;;;;11.97;52.76;100489.38;5114919;28;20024;-86
2022/05/10 00:12:51;;;;;;;7.82;4.60;;;;;;;11.91;52.82;100475.72;5113787;28;20084;-86
2022/05/10 00:15:16;;;;;;;8.63;4.65;;;;;;;12.00;52.69;100491.00;5113436;28;20427;-86
2022/05/10 00:17:42;;;;;;;9.38;5.13;;;;;;;11.93;52.24;100469.53;5113691;28;20024;-86
2022/05/10 00:20:13;;;;;;;9.45;5.43;;;;;;;11.94;52.55;100466.00;5113487;28;20475;-86
2022/05/10 00:22:39;;;;;;;10.27;4.95;;;;;;;12.02;52.22;100483.13;5113647;28;20551;-86
2022/05/10 00:25:07;;;;;;;7.65;4.22;;;;;;;12.03;52.39;100485.69;5113489;28;20027;-86
2022/05/10 00:27:33;;;;;;;9.13;4.25;;;;;;;11.98;52.28;100480.63;5113612;28;20035;-86
2022/05/10 00:30:00;;;;;;;8.10;4.20;;;;;;;11.95;52.38;100479.91;5114818;28;20047;-86
2022/05/10 00:32:29;;;;;;;7.75;4.50;;;;;;;11.99;52.01;100471.03;5114360;28;20467;-85
2022/05/10 00:34:54;;;;;;;8.40;4.47;;;;;;;11.95;52.04;100464.25;5113130;28;20023;-85
2022/05/10 00:37:21;;;;;;;7.20;4.00;;;;;;;11.92;52.04;100465.19;5114201;28;20034;-85
2022/05/10 00:39:47;;;;;;;6.10;4.10;;;;;;;11.99;52.04;100471.03;5113250;28;20112;-85
2022/05/10 00:42:18;;;;;;;15.40;4.53;;;;;;;11.96;52.12;100463.31;5112773;28;20059;-85
2022/05/10 00:44:49;;;;;;;5.57;4.13;;;;;;;11.98;52.18;100461.50;5113039;28;20118;-85
2022/05/10 00:47:33;;;;;;;8.43;4.55;;;;;;;11.97;52.14;100458.06;5114108;28;20594;-86
2022/05/10 00:50:07;;;;;;;9.50;4.25;;;;;;;11.99;52.06;100458.84;5111649;28;20117;-85
2022/05/10 00:52:53;;;;;;;6.20;4.30;;;;;;;11.99;52.10;100455.38;5111684;28;20047;-85
2022/05/10 00:55:31;;;;;;;8.38;4.75;;;;;;;11.99;52.35;100455.38;5094414;28;20088;-85
2022/05/10 00:58:03;;;;;;;8.77;3.95;;;;;;;11.90;52.35;100438.31;5111642;28;20027;-85
2022/05/10 01:00:31;;;;;;;6.97;3.97;;;;;;;11.87;52.79;100429.75;5111921;28;20074;-85
2022/05/10 01:03:13;;;;;;;9.85;4.60;;;;;;;11.91;52.65;100441.78;5111453;28;20092;-85
2022/05/10 01:05:43;;;;;;;7.88;4.55;;;;;;;11.91;52.88;100436.56;5094316;28;20032;-85
2022/05/10 01:08:17;;;;;;;7.95;4.63;;;;;;;11.92;52.99;100438.25;5094149;28;20028;-85
2022/05/10 01:10:49;;;;;;;10.07;4.60;;;;;;;11.83;53.59;100426.41;5094297;28;20119;-86
2022/05/10 01:13:17;;;;;;;11.30;4.88;;;;;;;11.87;53.66;100429.75;5093919;28;20047;-85
2022/05/10 01:15:56;;;;;;;6.45;4.65;;;;;;;11.73;53.71;100417.22;5094193;28;20039;-85
2022/05/10 01:18:23;;;;;;;8.38;4.50;;;;;;;11.79;53.96;100440.44;5111012;28;20519;-85
2022/05/10 01:20:51;;;;;;;11.05;5.63;;;;;;;11.73;54.29;100425.91;5100146;28;20036;-85
2022/05/10 01:23:48;;;;;;;8.13;5.00;;;;;;;11.72;54.45;100429.41;5112017;28;20032;-85
2022/05/10 01:26:29;;;;;;;6.65;4.75;;;;;;;11.62;54.86;100422.84;5112121;28;20069;-85
2022/05/10 01:29:03;;;;;;;8.43;4.70;;;;;;;11.65;54.78;100429.72;5112340;28;20034;-84
2022/05/10 01:31:41;;;;;;;12.13;5.30;;;;;;;11.58;55.57;100423.88;5111913;28;20031;-84
2022/05/10 01:34:11;;;;;;;11.77;4.80;;;;;;;11.56;55.78;100417.03;5113328;28;20032;-85
2022/05/10 01:36:39;;;;;;;10.20;5.25;;;;;;;11.55;55.79;100436.19;5112098;28;20019;-85
2022/05/10 01:39:40;;;;;;;8.57;4.90;;;;;;;11.49;55.88;100425.06;5111996;28;20114;-84
2022/05/10 01:42:29;;;;;;;8.10;4.88;;;;;;;11.42;56.24;100425.38;5111738;28;20038;-85
2022/05/10 01:45:00;;;;;;;9.45;5.53;;;;;;;11.36;56.86;100417.78;5111472;28;20392;-85
2022/05/10 01:47:58;;;;;;;8.65;5.22;;;;;;;11.33;56.99;100423.09;5111553;28;20723;-85
2022/05/10 01:50:39;;;;;;;7.90;5.25;;;;;;;11.27;57.29;100418.97;5110476;28;20132;-85
2022/05/10 01:53:15;;;;;;;7.20;5.00;;;;;;;11.24;57.70;100419.06;5111626;28;20035;-84
2022/05/10 01:55:53;;;;;;;6.40;4.78;;;;;;;11.20;57.78;100415.72;5112740;28;20034;-85
2022/05/10 01:58:27;;;;;;;8.23;5.60;;;;;;;11.09;58.15;100398.81;5111452;28;20035;-84
2022/05/10 02:00:57;;;;;;;8.15;5.57;;;;;;;11.10;58.38;100411.78;5112947;28;20037;-85
2022/05/10 02:03:28;;;;;;;7.35;5.32;;;;;;;10.93;58.85;100390.69;5112727;28;20031;-85
2022/05/10 02:06:07;;;;;;;6.75;5.20;;;;;;;11.02;58.88;100413.81;5111643;28;20112;-85
2022/05/10 02:08:56;;;;;;;11.32;5.85;;;;;;;10.99;59.05;100404.31;5111458;28;20074;-85
2022/05/10 02:11:22;;;;;;;11.82;5.80;;;;;;;10.92;59.39;100396.81;5089442;28;20043;-85
2022/05/10 02:14:27;;;;;;;12.68;5.25;;;;;;;10.94;59.97;100402.81;5072839;28;20450;-85
2022/05/10 02:17:04;;;;;;;11.98;5.13;;;;;;;10.86;59.97;100400.47;4973950;28;20062;-85
2022/05/10 02:19:43;;;;;;;6.40;5.32;;;;;;;10.87;60.21;100407.41;4989898;28;20483;-85
2022/05/10 02:22:16;;;;;;;10.43;5.95;;;;;;;10.82;60.52;100405.84;4990089;28;20035;-85
2022/05/10 02:24:54;;;;;;;10.77;6.18;;;;;;;10.81;61.03;100412.81;4990229;28;20031;-85
2022/05/10 02:27:25;;;;;;;8.13;5.45;;;;;;;10.76;60.93;100400.84;4989852;28;20073;-85
2022/05/10 02:29:51;;;;;;;11.75;5.72;;;;;;;10.77;61.34;100407.75;4990162;28;20093;-85
2022/05/10 02:35:06;;;;;;;11.27;5.70;;;;;;;10.61;61.79;100381.38;4990552;28;20454;-85
2022/05/10 02:37:32;;;;;;;9.93;4.82;;;;;;;10.64;62.23;100395.16;4989735;28;20034;-85
2022/05/10 02:39:59;;;;;;;10.98;5.60;;;;;;;10.63;62.21;100393.47;4989916;28;20064;-85
2022/05/10 02:42:26;;;;;;;8.88;5.65;;;;;;;10.53;62.47;100379.06;5009903;28;20056;-85
2022/05/10 02:44:54;;;;;;;12.88;5.93;;;;;;;10.49;62.73;100369.63;5012923;28;20584;-85
2022/05/10 02:47:37;;;;;;;16.50;5.65;;;;;;;10.56;63.08;100381.56;5028961;28;20544;-85
2022/05/10 02:50:07;;;;;;;8.18;5.55;;;;;;;10.52;63.15;100381.72;5012953;28;20032;-85
2022/05/10 02:52:33;;;;;;;7.80;5.72;;;;;;;10.49;63.54;100382.66;5029146;28;20068;-85
2022/05/10 02:55:05;;;;;;;13.05;6.53;;;;;;;10.46;64.01;100386.25;5102047;28;20440;-84
2022/05/10 02:57:31;;;;;;;6.78;5.03;;;;;;;10.45;64.04;100388.91;5110814;28;20527;-84
2022/05/10 03:00:00;;;;;;;8.90;5.68;;;;;;;10.43;64.10;100383.72;5110977;28;20023;-85
2022/05/10 03:02:31;;;;;;;10.93;6.13;;;;;;;10.41;64.15;100377.75;5110762;28;20032;-85
2022/05/10 03:04:58;;;;;;;;;;;;;;;10.42;64.55;100395.06;5111899;28;20016;-85
2022/05/10 03:07:29;;;;;;;8.20;5.72;;;;;;;10.39;64.42;100386.50;5114809;28;19912;-85
2022/05/10 03:09:54;;;;;;;9.00;5.90;;;;;;;10.32;64.87;100378.03;5116415;28;20107;-85
2022/05/10 03:12:20;;;;;;;8.90;5.10;;;;;;;10.33;64.83;100379.75;5114670;28;20023;-85
2022/05/10 03:14:46;;;;;;;12.00;5.55;;;;;;;10.33;65.07;100382.34;5114839;28;20030;-85
2022/05/10 03:17:12;;;;;;;12.00;5.78;;;;;;;10.29;65.34;100374.72;5114807;28;20019;-85
2022/05/10 03:19:41;;;;;;;9.90;5.47;;;;;;;10.25;65.51;100379.16;5114709;28;20031;-85
2022/05/10 03:22:08;;;;;;;11.50;5.82;;;;;;;10.31;65.68;100385.91;5114917;28;20122;-85
2022/05/10 03:24:34;;;;;;;6.80;5.30;;;;;;;10.28;65.51;100386.00;5114570;28;20023;-85
2022/05/10 03:27:03;;;;;;;8.10;5.68;;;;;;;10.34;65.47;100396.22;5114714;28;20050;-85
2022/05/10 03:29:29;;;;;;;9.57;5.60;;;;;;;10.33;65.65;100397.97;5114373;28;20480;-85
2022/05/10 03:31:55;;;;;;;12.02;6.07;;;;;;;10.33;65.73;100392.78;5114570;28;20084;-85
2022/05/10 03:37:05;;;;;;;8.52;5.70;;;;;;;10.37;65.83;100394.38;5115957;28;20034;-85
2022/05/10 03:39:30;;;;;;;10.10;5.65;;;;;;;10.40;65.80;100398.59;5114262;28;20019;-85
2022/05/10 03:41:56;;;;;;;10.55;5.88;;;;;;;10.39;66.01;100392.56;5114545;28;20054;-85
2022/05/10 03:44:22;;;;;;;9.43;5.95;;;;;;;10.42;66.19;100394.22;5114140;28;20059;-85
2022/05/10 03:46:47;;;;;;;8.50;5.82;;;;;;;10.42;66.09;100384.66;5114012;28;20027;-85
2022/05/10 03:49:13;;;;;;;8.73;5.68;;;;;;;10.45;66.05;100375.88;5114502;28;20023;-85
2022/05/10 03:51:39;;;;;;;11.05;6.25;;;;;;;10.56;66.35;100386.75;5114397;28;20031;-86
2022/05/10 03:54:05;;;;;;;16.73;6.75;;;;;;;10.62;65.88;100385.69;5115368;28;20024;-83
2022/05/10 03:56:31;;;;;;;10.18;6.07;;;;;;;10.71;65.56;100383.63;5113967;28;20047;-83
2022/05/10 03:58:56;;;;;;;9.60;5.90;;;;;;;10.84;65.31;100380.59;5114024;28;20055;-83
2022/05/10 04:01:22;;;;;;;12.35;6.15;;;;;;;11.08;64.29;100373.63;5115192;28;20058;-83
2022/05/10 04:03:48;;;;;;;9.98;5.65;;;;;;;11.40;63.34;100375.03;5114179;28;20436;-83
2022/05/10 04:06:15;;;;;;;10.98;5.72;;;;;;;11.84;62.21;100375.06;5115421;28;20028;-84
2022/05/10 04:08:40;;;;;;;11.55;6.45;;;;;;;12.20;60.84;100357.88;5115577;28;20408;-84
2022/05/10 04:11:08;;;;;;;9.98;5.85;;;;;;;12.74;58.98;100360.81;5113895;28;20031;-84
2022/05/10 04:13:34;;;;;;;7.47;6.18;;;;;;;13.68;56.66;100375.69;5113467;28;20019;-84
2022/05/10 04:16:00;;;;;;;7.97;5.63;;;;;;;14.89;52.24;100370.47;5115024;28;20487;-84
2022/05/10 04:18:26;;;;;;;8.02;5.43;;;;;;;15.93;48.88;100369.19;5112882;28;20059;-84
2022/05/10 04:20:52;;;;;;;10.48;5.82;;;;;;;16.40;46.85;100370.81;5113762;28;20020;-83
2022/05/10 04:23:17;;;;;;;9.68;6.03;;;;;;;16.50;46.42;100369.31;5113403;28;20035;-84
2022/05/10 04:25:43;;;;;;;9.73;5.90;;;;;;;16.48;46.76;100365.94;5113475;28;20088;-84
2022/05/10 04:28:09;;;;;;;6.72;5.65;;;;;;;16.52;45.81;100375.34;5113178;28;20020;-84
2022/05/10 04:30:34;;;;;;;10.60;5.57;;;;;;;16.51;45.19;100371.00;5113039;28;20031;-84
2022/05/10 04:32:59;;;;;;;9.45;5.85;;;;;;;16.55;45.69;100355.91;5113497;28;20084;-85
2022/05/10 04:35:25;;;;;;;9.55;6.10;;;;;;;16.96;44.76;100377.94;5113250;28;20055;-84
2022/05/10 04:37:50;;;;;;;15.25;6.45;;;;;;;17.94;42.65;100366.44;5114607;28;20055;-84
2022/05/10 04:43:00;;;;;;;16.55;6.13;;;;;;;19.78;37.96;100374.84;5114651;28;20100;-84
2022/05/10 04:45:27;;;;;;;8.13;5.90;;;;;;;19.73;37.91;100371.69;5113065;28;20035;-84
2022/05/10 04:47:53;;;;;;;9.98;5.63;;;;;;;19.27;37.65;100359.13;5112984;28;20043;-84
2022/05/10 04:50:18;;;;;;;9.38;5.75;;;;;;;18.82;38.85;100361.41;5114220;28;20361;-84
2022/05/10 04:52:44;;;;;;;10.48;5.55;;;;;;;18.94;38.92;100375.56;5113106;28;20424;-85
2022/05/10 04:55:10;;;;;;;13.13;5.78;;;;;;;18.90;38.63;100355.59;5114359;28;20116;-84
2022/05/10 04:57:36;;;;;;;12.95;6.38;;;;;;;18.94;38.16;100362.38;5112581;28;20027;-84
2022/05/10 05:00:04;;;;;;;12.40;6.57;;;;;;;19.60;37.28;100374.34;5113071;28;20060;-85
2022/05/10 05:02:30;;;;;;;9.20;5.40;;;;;;;21.10;35.01;100381.53;5112713;28;20027;-84
2022/05/10 05:04:55;;;;;;;8.73;5.53;;;;;;;22.53;32.47;100377.88;5112890;28;20112;-84
2022/05/10 05:07:20;;;;;;;10.55;5.88;;;;;;;22.39;31.46;100368.44;5113849;28;20028;-85
2022/05/10 05:09:46;;;;;;;16.88;5.93;;;;;;;21.23;33.40;100381.41;5114049;28;20325;-84
2022/05/10 05:12:11;;;;;;;14.90;6.85;;;;;;;20.49;34.74;100380.19;5114050;28;20050;-84
2022/05/10 05:14:38;;;;;;;11.70;6.25;;;;;;;20.22;35.67;100373.31;5113942;28;20019;-84
2022/05/10 05:17:03;;;;;;;8.82;5.20;;;;;;;20.49;35.71;100375.72;5114029;28;20102;-84
2022/05/10 05:19:29;;;;;;;10.38;5.90;;;;;;;20.84;34.60;100364.22;5112416;28;20123;-85
2022/05/10 05:21:54;;;;;;;10.43;6.07;;;;;;;22.32;32.90;100368.09;5112458;28;20031;-84
2022/05/10 05:24:20;;;;;;;8.88;5.68;;;;;;;23.77;30.36;100364.41;5113571;28;20031;-85
2022/05/10 05:26:47;;;;;;;10.23;6.35;;;;;;;23.99;29.48;100364.09;5113800;28;20057;-84
2022/05/10 05:29:12;;;;;;;11.77;5.80;;;;;;;23.75;29.79;100364.50;5112726;28;20019;-85
2022/05/10 05:31:38;;;;;;;10.95;5.93;;;;;;;23.39;30.70;100358.00;5112109;28;20057;-85
2022/05/10 05:34:04;;;;;;;13.43;6.35;;;;;;;22.87;30.98;100367.84;5112168;28;20027;-85
2022/05/10 05:36:29;;;;;;;13.15;5.88;;;;;;;22.40;31.97;100362.97;5111983;28;20024;-85
2022/05/10 05:38:55;;;;;;;11.07;5.60;;;;;;;22.59;31.85;100356.97;5112103;28;20488;-85
2022/05/10 05:41:20;;;;;;;12.05;5.75;;;;;;;23.44;30.51;100369.06;5111901;28;20024;-85
2022/05/10 05:43:46;;;;;;;10.18;5.95;;;;;;;25.18;28.33;100361.88;5113251;28;20481;-84
2022/05/10 05:46:11;;;;;;;8.45;5.43;;;;;;;26.43;26.36;100364.63;5112014;28;20033;-85
2022/05/10 05:48:37;;;;;;;11.93;6.05;;;;;;;25.80;26.36;100362.94;5111569;28;20412;-84
2022/05/10 05:51:04;;;;;;;8.75;5.03;;;;;;;24.92;28.34;100353.72;5113282;28;20070;-85
2022/05/10 05:53:29;;;;;;;10.18;5.13;;;;;;;24.55;28.59;100339.38;5112995;28;20110;-85
2022/05/10 05:56:11;;;;;;;11.05;5.30;;;;;;;24.72;28.14;100360.94;5111682;28;20031;-85
2022/05/10 05:58:38;;;;;;;10.68;5.47;;;;;;;24.89;28.40;100365.50;5111524;28;20100;-85
2022/05/10 06:01:15;;;;;;;12.52;5.53;;;;;;;26.55;26.76;100360.72;5111672;28;20031;-85
2022/05/10 06:03:42;;;;;;;8.63;5.35;;;;;;;28.13;24.63;100352.88;5112645;28;20560;-85
2022/05/10 06:06:08;;;;;;;8.02;5.15;;;;;;;27.68;24.69;100345.28;5111500;28;20106;-85
2022/05/10 06:08:34;;;;;;;11.40;5.60;;;;;;;26.94;25.29;100353.09;5111150;28;20030;-86
2022/05/10 06:11:00;;;;;;;11.73;5.40;;;;;;;26.85;25.83;100348.69;5111660;28;20024;-86
2022/05/10 06:13:27;;;;;;;7.85;5.22;;;;;;;26.76;26.26;100345.16;5111277;28;20020;-86
2022/05/10 06:15:53;;;;;;;9.75;5.32;;;;;;;27.49;25.31;100343.78;5111483;28;20030;-86
2022/05/10 06:18:18;;;;;;;7.97;5.72;;;;;;;29.69;22.95;100345.19;5111381;28;20032;-86
2022/05/10 06:20:44;;;;;;;9.27;5.40;;;;;;;32.01;20.43;100343.06;5112251;28;20681;-86
2022/05/10 06:23:09;;;;;;;8.60;5.20;;;;;;;33.21;19.28;100323.09;5111196;28;20035;-84
2022/05/10 06:25:36;;;;;;;11.93;5.78;;;;;;;33.57;18.38;100324.66;5112582;28;20031;-84
2022/05/10 06:28:02;;;;;;;9.23;5.55;;;;;;;34.15;18.05;100333.03;5111035;28;20043;-84
2022/05/10 06:30:29;;;;;;;8.43;5.97;;;;;;;31.80;19.38;100325.84;5111024;28;20023;-84
2022/05/10 06:32:59;;;;;;;10.35;5.80;;;;;;;30.33;20.59;100333.09;5111200;28;20383;-84
2022/05/10 06:35:25;;;;;;;14.93;6.03;;;;;;;30.37;21.78;100317.44;5112129;28;20019;-85
2022/05/10 06:40:34;;;;;;;10.13;5.82;;;;;;;35.66;17.24;100320.03;5111967;28;20047;-85
2022/05/10 06:43:01;;;;;;;11.07;5.90;;;;;;;38.01;15.14;100321.53;5112478;28;20031;-85
2022/05/10 06:45:27;;;;;;;11.13;6.30;;;;;;;39.37;13.79;100318.47;5112085;28;20034;-85
2022/05/10 06:47:53;;;;;;;8.55;5.57;;;;;;;40.71;12.74;100314.00;5112046;28;20405;-85
2022/05/10 06:50:21;;;;;;;10.50;6.18;;;;;;;41.87;12.33;100325.38;5110855;28;20032;-85
2022/05/10 06:52:49;;;;;;;9.35;5.60;;;;;;;43.20;11.34;100312.41;5112407;28;20129;-83
2022/05/10 06:55:15;;;;;;;6.67;4.70;;;;;;;44.20;10.92;100314.59;5111034;28;20073;-84
2022/05/10 06:57:40;;;;;;;8.63;5.28;;;;;;;44.93;10.11;100303.13;5112360;28;20661;-84
2022/05/10 07:00:07;;;;;;;9.25;5.72;;;;;;;44.75;10.11;100307.31;5110799;28;20592;-86
2022/05/10 07:02:33;;;;;;;7.13;4.53;;;;;;;45.27;9.96;100305.94;5111756;28;20031;-86
2022/05/10 07:04:58;;;;;;;11.18;5.35;;;;;;;46.11;9.17;100308.56;5111005;28;20039;-86
2022/05/10 07:07:23;;;;;;;8.52;5.13;;;;;;;43.80;10.13;100294.34;5110917;28;20103;-86
2022/05/10 07:09:49;;;;;;;7.88;4.88;;;;;;;44.69;10.51;100310.38;5110599;28;20541;-85
2022/05/10 07:12:14;;;;;;;7.18;5.05;;;;;;;44.35;10.33;100289.06;5110734;28;20054;-85
2022/05/10 07:14:40;;;;;;;9.23;5.38;;;;;;;45.16;9.59;100296.13;5088752;28;20153;-86
2022/05/10 07:17:05;;;;;;;8.32;4.60;;;;;;;45.92;9.52;100291.94;5089230;28;20505;-86
2022/05/10 07:19:31;;;;;;;8.80;5.55;;;;;;;46.16;9.42;100305.72;5071895;28;20393;-85
2022/05/10 07:21:57;;;;;;;7.90;4.90;;;;;;;46.02;9.48;100304.81;5072164;28;20485;-85
2022/05/10 07:24:22;;;;;;;10.07;5.38;;;;;;;46.51;9.14;100301.75;5089159;28;20079;-85
2022/05/10 07:26:48;;;;;;;7.07;4.63;;;;;;;47.02;8.84;100300.28;5088906;28;20099;-86
2022/05/10 07:29:15;;;;;;;8.13;4.72;;;;;;;47.22;9.20;100288.94;5072181;28;20110;-85
2022/05/10 07:31:41;;;;;;;5.90;4.30;;;;;;;47.82;8.46;100282.72;5088945;28;20024;-86
2022/05/10 07:34:08;;;;;;;10.80;5.45;;;;;;;48.50;8.24;100280.31;5069996;28;20446;-86
2022/05/10 07:36:34;;;;;;;7.35;4.63;;;;;;;49.04;8.06;100275.81;5088322;28;20412;-87
2022/05/10 07:39:01;;;;;;;8.75;4.53;;;;;;;49.51;8.27;100279.94;5071915;28;20397;-88
2022/05/10 07:41:29;;;;;;;6.78;4.50;;;;;;;50.21;7.78;100283.09;5071898;28;20481;-88
2022/05/10 07:43:56;;;;;;;7.93;4.35;;;;;;;50.06;7.39;100278.75;5089019;28;20548;-90
2022/05/10 07:46:21;;;;;;;6.88;4.75;;;;;;;50.22;7.71;100279.16;5101594;28;20119;-88
2022/05/10 07:48:47;;;;;;;14.85;4.97;;;;;;;49.09;8.00;100273.72;5109868;28;20177;-86
2022/05/10 07:51:12;;;;;;;9.40;5.07;;;;;;;49.25;7.70;100268.66;5111391;28;20035;-88
2022/05/10 07:53:38;;;;;;;9.20;5.07;;;;;;;48.49;8.24;100268.47;5114619;28;20041;-88
2022/05/10 07:56:04;;;;;;;8.18;5.13;;;;;;;48.46;7.99;100263.53;5114101;28;20023;-88
2022/05/10 07:58:30;;;;;;;10.10;4.63;;;;;;;48.49;7.90;100268.47;5113769;28;20035;-89
2022/05/10 08:00:56;;;;;;;7.25;4.43;;;;;;;48.64;8.37;100267.31;5113840;28;20495;-87
2022/05/10 08:03:24;;;;;;;9.35;4.22;;;;;;;48.85;7.80;100264.94;5114061;28;20034;-88
2022/05/10 08:05:50;;;;;;;8.43;4.60;;;;;;;49.05;7.55;100263.59;5113719;28;20038;-89
2022/05/10 08:08:19;;;;;;;11.40;4.78;;;;;;;49.50;8.23;100263.66;5115251;28;20074;-87
2022/05/10 08:10:46;;;;;;;6.20;4.82;;;;;;;49.57;7.64;100277.88;5113609;28;20023;-88
2022/05/10 08:13:18;;;;;;;8.90;4.27;;;;;;;48.78;7.82;100268.13;5115100;28;20384;-89
2022/05/10 08:15:47;;;;;;;7.88;4.50;;;;;;;49.17;7.98;100263.88;5113369;28;20031;-89
2022/05/10 08:18:14;;;;;;;8.32;4.55;;;;;;;48.93;8.08;100264.19;5113737;28;20066;-88
2022/05/10 08:20:40;;;;;;;7.82;4.93;;;;;;;47.51;8.58;100254.84;5113244;28;20031;-87
2022/05/10 08:23:06;;;;;;;11.27;5.05;;;;;;;45.27;10.03;100255.63;5113522;28;20077;-87
2022/05/10 08:25:33;;;;;;;12.98;5.93;;;;;;;40.53;12.30;100252.34;5132362;27;20509;-87
2022/05/10 08:27:58;;;;;;;8.15;4.55;;;;;;;35.81;14.99;100243.00;5115492;27;20470;-86
2022/05/10 08:30:25;;;;;;;14.13;5.85;;;;;;;32.64;18.22;100241.47;5115467;27;20047;-87
2022/05/10 08:32:51;;;;;;;9.15;5.22;;;;;;;30.55;20.92;100236.41;5115242;27;20023;-88
2022/05/10 08:35:16;;;;;;;6.63;5.15;;;;;;;29.43;22.39;100238.16;5132618;27;20027;-86
2022/05/10 08:37:42;;;;;;;9.98;4.72;;;;;;;28.26;22.79;100235.34;5115140;27;20080;-86
2022/05/10 08:40:34;;;;;;;8.75;4.82;;;;;;;27.21;24.21;100236.22;5115260;27;20368;-86
2022/05/10 08:43:04;;;;;;;8.27;4.47;;;;;;;26.80;25.35;100228.91;5108028;28;20081;-86
2022/05/10 08:45:37;;;;;;;9.50;5.05;;;;;;;26.30;26.11;100226.16;5112207;28;20066;-87
2022/05/10 08:48:05;;;;;;;6.28;4.35;;;;;;;25.96;25.92;100234.13;5094535;28;20542;-88
2022/05/10 08:50:31;;;;;;;9.20;4.45;;;;;;;25.65;26.41;100213.19;5094755;28;20036;-86
2022/05/10 08:52:57;;;;;;;7.88;4.30;;;;;;;25.34;25.98;100226.94;5094231;28;20031;-86
2022/05/10 08:55:33;;;;;;;8.05;4.95;;;;;;;24.98;27.95;100238.53;5094769;28;20024;-88
2022/05/10 08:58:04;;;;;;;10.68;4.72;;;;;;;24.66;28.69;100234.50;5111721;28;20272;-86
2022/05/10 09:00:57;;;;;;;8.07;4.47;;;;;;;24.43;29.07;100226.03;5094515;28;20051;-87
2022/05/10 09:03:45;;;;;;;6.97;3.70;;;;;;;24.42;28.27;100240.34;5103685;28;20130;-87
2022/05/10 09:06:29;;;;;;;11.27;4.85;;;;;;;24.24;28.44;100242.91;5112830;28;20383;-88
2022/05/10 09:09:13;;;;;;;10.35;4.95;;;;;;;23.69;29.39;100236.59;5114013;28;20050;-86
2022/05/10 09:11:51;;;;;;;9.30;4.95;;;;;;;23.25;29.80;100233.47;5112346;28;20499;-86
2022/05/10 09:14:18;;;;;;;8.18;4.38;;;;;;;22.96;30.23;100214.81;5112546;28;20053;-86
2022/05/10 09:16:43;;;;;;;8.32;4.40;;;;;;;23.02;31.25;100203.66;5112310;28;20035;-85
2022/05/10 09:19:11;;;;;;;15.10;5.47;;;;;;;23.19;31.45;100215.44;5112415;28;20038;-86
2022/05/10 09:21:36;;;;;;;11.38;4.55;;;;;;;23.27;30.48;100220.88;5112115;28;20042;-86
2022/05/10 09:24:13;;;;;;;10.40;4.28;;;;;;;23.27;29.46;100204.94;5090665;28;20127;-85
2022/05/10 09:26:52;;;;;;;8.60;4.18;;;;;;;23.34;29.02;100201.59;5073383;28;20040;-85
2022/05/10 09:29:24;;;;;;;10.45;4.50;;;;;;;23.57;29.84;100222.56;5090721;28;20054;-86
2022/05/10 09:34:46;;;;;;;11.80;4.93;;;;;;;23.44;30.42;100192.78;5090595;28;20042;-85
2022/05/10 09:37:35;;;;;;;11.15;5.13;;;;;;;23.45;31.07;100211.22;5073483;28;20028;-85
2022/05/10 09:40:10;;;;;;;9.43;4.80;;;;;;;23.42;30.70;100195.53;5073350;28;20398;-86
2022/05/10 09:42:44;;;;;;;8.55;4.63;;;;;;;23.32;30.33;100194.72;5073364;28;20085;-84
2022/05/10 09:45:17;;;;;;;10.70;5.03;;;;;;;23.12;31.29;100191.22;5073401;28;20392;-85
2022/05/10 09:48:15;;;;;;;6.28;4.28;;;;;;;23.09;30.82;100192.34;5072898;28;20067;-86
2022/05/10 09:50:46;;;;;;;10.52;4.30;;;;;;;23.13;31.00;100185.78;5072859;28;20028;-87
2022/05/10 09:53:12;;;;;;;6.93;4.45;;;;;;;23.15;31.64;100193.59;5090253;28;20028;-85
2022/05/10 09:55:40;;;;;;;7.82;4.43;;;;;;;23.24;30.75;100178.63;5072744;28;20492;-84
2022/05/10 09:58:16;;;;;;;7.50;4.10;;;;;;;23.23;30.62;100172.47;5073005;28;20024;-86
2022/05/10 10:00:44;;;;;;;5.97;3.80;;;;;;;23.35;30.64;100150.09;5093661;28;20511;-84
2022/05/10 10:03:21;;;;;;;9.43;4.32;;;;;;;23.59;30.34;100178.88;5111502;28;20031;-86
2022/05/10 10:05:47;;;;;;;8.07;4.13;;;;;;;23.55;30.60;100169.50;5102621;28;20053;-86
2022/05/10 10:08:12;;;;;;;6.88;3.95;;;;;;;23.44;29.73;100172.34;5091072;28;20028;-86
2022/05/10 10:10:38;;;;;;;5.85;4.00;;;;;;;23.36;29.42;100162.41;5091126;28;20031;-87
2022/05/10 10:13:25;;;;;;;7.07;3.67;;;;;;;23.36;29.76;100161.56;5091151;28;20028;-86
2022/05/10 10:15:50;;;;;;;8.23;3.80;;;;;;;23.48;30.73;100162.25;5090343;28;20027;-86
2022/05/10 10:18:40;;;;;;;6.63;3.70;;;;;;;23.68;30.79;100163.06;5092618;28;20032;-86
2022/05/10 10:21:09;;;;;;;7.30;4.00;;;;;;;23.74;29.95;100152.72;5091105;28;20020;-86
2022/05/10 10:23:38;;;;;;;12.00;4.47;;;;;;;23.77;29.82;100147.13;5091110;28;20512;-86
2022/05/10 10:26:34;;;;;;;6.75;3.85;;;;;;;23.89;29.93;100163.72;5090960;28;20110;-87
2022/05/10 10:29:35;;;;;;;10.55;4.10;;;;;;;24.00;29.90;100157.41;5090182;28;20097;-87
2022/05/10 10:32:08;;;;;;;9.75;4.70;;;;;;;23.96;30.01;100129.41;5090768;28;20038;-86
2022/05/10 10:34:48;;;;;;;6.55;4.20;;;;;;;23.99;28.69;100155.72;5092095;28;20062;-86
2022/05/10 10:37:43;;;;;;;10.95;4.57;;;;;;;23.66;29.05;100141.97;5090759;28;20028;-86
2022/05/10 10:40:24;;;;;;;7.15;3.83;;;;;;;23.54;29.45;100135.94;5090772;28;20110;-86
2022/05/10 10:43:14;;;;;;;7.45;3.95;;;;;;;23.55;28.82;100140.25;5090571;28;20056;-86
2022/05/10 10:45:44;;;;;;;;;;;;;;;23.47;29.47;100129.53;5092311;28;20032;-86
2022/05/10 10:48:19;;;;;;;6.57;4.13;;;;;;;23.48;29.59;100127.69;5092007;28;19916;-86
2022/05/10 10:50:44;;;;;;;8.68;4.40;;;;;;;23.30;30.08;100116.94;5090434;28;20089;-86
2022/05/10 10:53:12;;;;;;;7.82;4.20;;;;;;;23.19;29.73;100119.75;5090606;28;20610;-86
2022/05/10 10:56:05;;;;;;;7.05;4.50;;;;;;;23.12;29.99;100114.16;5090536;28;20024;-86
2022/05/10 10:58:58;;;;;;;12.52;5.03;;;;;;;23.05;30.67;100116.56;5090799;28;20027;-86
2022/05/10 11:01:47;;;;;;;7.93;4.05;;;;;;;23.15;31.09;100119.19;5092196;28;20024;-86
2022/05/10 11:04:49;;;;;;;11.48;4.45;;;;;;;23.24;29.69;100112.19;5029119;28;20054;-86
2022/05/10 11:07:34;;;;;;;8.20;4.03;;;;;;;23.03;30.39;100093.75;5012849;28;20021;-86
2022/05/10 11:10:23;;;;;;;8.55;3.92;;;;;;;23.15;31.03;100106.75;5012359;28;20637;-86
2022/05/10 11:13:04;;;;;;;9.45;4.18;;;;;;;23.22;30.49;100095.53;5029218;28;20053;-89
2022/05/10 11:16:10;;;;;;;8.45;4.25;;;;;;;23.15;30.33;100084.66;5012768;28;20160;-85
2022/05/10 11:18:53;;;;;;;12.52;4.82;;;;;;;23.03;30.22;100085.78;4989860;28;20035;-87
2022/05/10 11:21:32;;;;;;;9.55;4.07;;;;;;;22.95;31.27;100090.97;4973569;28;20642;-87
2022/05/10 11:24:20;;;;;;;11.15;3.88;;;;;;;23.02;30.73;100084.94;4973327;28;20053;-87
2022/05/10 11:27:10;;;;;;;9.25;4.15;;;;;;;23.07;31.22;100077.38;4989484;28;20137;-87
2022/05/10 11:29:57;;;;;;;6.65;4.13;;;;;;;23.18;31.98;100073.75;4993439;28;20026;-87
2022/05/10 11:32:41;;;;;;;5.30;3.77;;;;;;;23.33;31.70;100074.13;4991283;28;20088;-87
2022/05/10 11:35:21;;;;;;;7.45;4.15;;;;;;;23.39;31.14;100070.91;4992202;28;20042;-88
2022/05/10 11:38:03;;;;;;;8.48;4.82;;;;;;;23.41;30.71;100069.78;4993193;28;20028;-87
2022/05/10 11:40:47;;;;;;;9.05;4.50;;;;;;;23.48;31.30;100066.56;5003488;28;20489;-87
2022/05/10 11:43:49;;;;;;;5.90;3.63;;;;;;;23.46;30.93;100063.19;5052353;28;20135;-88
2022/05/10 11:46:31;;;;;;;5.55;3.90;;;;;;;23.56;31.72;100048.06;5052179;28;20124;-87
2022/05/10 11:49:28;;;;;;;5.03;3.53;;;;;;;23.64;31.78;100061.47;5052009;28;20059;-88
2022/05/10 11:52:18;;;;;;;6.47;3.95;;;;;;;23.68;31.39;100054.88;5035421;28;20179;-88
2022/05/10 11:54:58;;;;;;;6.30;3.83;;;;;;;23.64;30.54;100041.03;5051896;28;20228;-88
2022/05/10 11:57:26;;;;;;;8.00;3.90;;;;;;;23.54;31.25;100016.28;5012319;28;20550;-87